Estiva, Brazil
Current Conditions -  °F | °C
As of 2:00 PM on Thursday 27 Nov 2014 (Local Time) from SBSJ Reporting Station
Broken Clouds Broken Clouds  
Wind Chill: 82°   Ceiling: 7000
Heat Index: 85°   Visibility: 6mi
Dew Point: 66°   Wind: 10mph
Humidity: 58%   Direction: 210°SSW
Pressure: 29.94"   Gusts: NA
Location:  22.46°S, 46.02°W
Report Text: SBSJ 271600Z 21009KT 9999 SCT025 BKN070 28/19 Q1014
Loading
Personal Weather Stations






























Interactive Weather Map New forecast layout! Learn more

10-Day Weather Forecast

Advertisements
Track Severe Weather on mobile